Time;durP1;ratioP1;P1;durP2;ratioP2;P2;SDS_P1;SDS_P2;PMS_P1;PMS_P2;Temp;Humidity;BMP_temperature;BMP_pressure;BME280_temperature;BME280_humidity;BME280_pressure;Samples;Min_cycle;Max_cycle;Signal;HPM_P1;HPM_P2
2022/10/06 00:01:07;;;;;;;7.30;1.30;;;;;;;11.87;100.00;102005.97;5250003;28;20033;-64
2022/10/06 00:03:40;;;;;;;6.47;1.40;;;;;;;11.84;100.00;102006.19;5250182;28;20079;-64
2022/10/06 00:06:13;;;;;;;8.18;2.22;;;;;;;11.82;100.00;102021.47;5263602;28;20029;-64
2022/10/06 00:08:46;;;;;;;9.55;1.48;;;;;;;11.84;100.00;102022.25;5260210;28;20020;-63
2022/10/06 00:11:17;;;;;;;9.35;1.42;;;;;;;11.79;100.00;102025.19;5255426;28;20028;-63
2022/10/06 00:13:49;;;;;;;6.72;1.30;;;;;;;11.80;100.00;102032.25;5259307;28;20063;-64
2022/10/06 00:16:21;;;;;;;6.53;1.30;;;;;;;11.93;100.00;102041.28;5263705;28;20026;-63
2022/10/06 00:18:52;;;;;;;8.52;1.35;;;;;;;11.74;100.00;102046.03;5264670;28;20220;-64
2022/10/06 00:21:23;;;;;;;8.10;1.40;;;;;;;11.73;100.00;102046.97;5254998;28;20429;-63
2022/10/06 00:23:55;;;;;;;7.20;1.30;;;;;;;11.68;100.00;102059.78;5249486;28;20037;-63
2022/10/06 00:26:26;;;;;;;4.88;1.10;;;;;;;11.74;100.00;102056.72;5252587;28;20028;-64
2022/10/06 00:28:57;;;;;;;7.28;1.30;;;;;;;11.80;100.00;102058.16;5255886;28;20159;-64
2022/10/06 00:31:28;;;;;;;6.25;1.42;;;;;;;11.72;100.00;102063.97;5251721;28;20029;-63
2022/10/06 00:34:00;;;;;;;6.88;1.25;;;;;;;11.64;100.00;102075.16;5257980;28;20033;-64
2022/10/06 00:36:31;;;;;;;8.48;1.58;;;;;;;11.62;100.00;102076.16;5269133;28;20059;-63
2022/10/06 00:39:02;;;;;;;7.20;1.63;;;;;;;11.55;100.00;102079.22;5267428;28;20870;-63
2022/10/06 00:41:34;;;;;;;6.80;1.38;;;;;;;11.55;100.00;102076.56;5256550;28;20033;-63
2022/10/06 00:44:05;;;;;;;7.55;1.48;;;;;;;11.57;100.00;102090.69;5250694;28;20028;-64
2022/10/06 00:46:51;;;;;;;11.45;1.88;;;;;;;11.57;100.00;102085.34;5270723;28;20919;-63
2022/10/06 00:49:25;;;;;;;6.88;1.60;;;;;;;11.57;100.00;102077.31;5249478;28;20109;-63
2022/10/06 00:52:01;;;;;;;7.07;1.63;;;;;;;11.58;100.00;102087.06;5252275;28;20091;-63
2022/10/06 00:54:34;;;;;;;7.47;1.35;;;;;;;11.52;100.00;102091.91;5266455;28;20072;-62
2022/10/06 00:57:06;;;;;;;9.30;1.38;;;;;;;11.49;100.00;102092.13;5256170;28;20361;-62
2022/10/06 00:59:39;;;;;;;8.05;1.80;;;;;;;11.51;100.00;102085.72;5258354;28;20300;-62
2022/10/06 01:02:34;;;;;;;11.35;1.88;;;;;;;11.49;100.00;102102.81;5260339;28;20239;-61
2022/10/06 01:05:07;;;;;;;8.85;2.22;;;;;;;11.43;100.00;102109.38;5261644;28;20087;-61
2022/10/06 01:07:38;;;;;;;9.20;1.80;;;;;;;11.40;100.00;102116.72;5254467;28;20550;-61
2022/10/06 01:10:09;;;;;;;10.25;1.73;;;;;;;11.42;100.00;102117.47;5253713;28;20021;-61
2022/10/06 01:12:41;;;;;;;10.30;1.40;;;;;;;11.38;100.00;102117.66;5255264;28;20091;-61
2022/10/06 01:15:14;;;;;;;9.45;1.95;;;;;;;11.34;100.00;102125.94;5264958;28;20444;-61
2022/10/06 01:17:54;;;;;;;10.50;1.90;;;;;;;11.41;100.00;102123.75;5266177;28;20031;-61
2022/10/06 01:20:28;;;;;;;8.63;1.52;;;;;;;11.31;100.00;102139.47;5264746;28;20024;-61
2022/10/06 01:23:04;;;;;;;5.45;1.48;;;;;;;11.31;100.00;102150.16;5265604;28;20077;-61
2022/10/06 01:25:36;;;;;;;8.75;1.40;;;;;;;11.23;100.00;102139.09;5261555;28;20028;-61
2022/10/06 01:28:08;;;;;;;8.63;1.90;;;;;;;11.22;100.00;102138.22;5257236;28;20036;-61
2022/10/06 01:30:53;;;;;;;12.95;2.00;;;;;;;11.21;100.00;102157.00;5261062;28;20105;-61
2022/10/06 01:33:24;;;;;;;8.20;1.35;;;;;;;11.19;100.00;102157.94;5271774;28;20036;-61
2022/10/06 01:35:55;;;;;;;9.68;1.55;;;;;;;11.24;100.00;102163.03;5255207;28;20040;-62
2022/10/06 01:38:27;;;;;;;10.02;2.40;;;;;;;11.28;100.00;102159.25;5249511;28;20029;-61
2022/10/06 01:40:58;;;;;;;11.75;2.20;;;;;;;11.21;100.00;102170.38;5272929;28;20074;-61
2022/10/06 01:43:29;;;;;;;9.45;2.10;;;;;;;11.15;100.00;102171.59;5240962;28;20031;-61
2022/10/06 01:46:01;;;;;;;9.18;1.73;;;;;;;11.14;100.00;102180.53;5259926;28;20035;-61
2022/10/06 01:48:35;;;;;;;11.88;2.40;;;;;;;11.10;100.00;102174.53;5255134;28;20506;-61
2022/10/06 01:51:08;;;;;;;13.40;1.88;;;;;;;11.08;100.00;102175.53;5263512;28;20040;-61
2022/10/06 01:53:39;;;;;;;8.50;1.63;;;;;;;11.11;100.00;102178.91;5249237;28;20493;-62
2022/10/06 01:56:11;;;;;;;7.63;1.77;;;;;;;11.04;100.00;102187.34;5254725;28;20031;-63
2022/10/06 01:58:42;;;;;;;8.13;1.88;;;;;;;11.04;100.00;102182.03;5252919;28;20573;-63
2022/10/06 02:01:14;;;;;;;10.95;2.03;;;;;;;11.02;100.00;102191.94;5264105;28;20028;-61
2022/10/06 02:03:45;;;;;;;8.40;1.73;;;;;;;11.06;100.00;102186.31;5259529;28;20114;-63
2022/10/06 02:06:16;;;;;;;11.20;2.33;;;;;;;10.99;100.00;102184.97;5262983;28;20032;-64
2022/10/06 02:08:48;;;;;;;10.30;2.30;;;;;;;11.00;100.00;102181.31;5264475;28;20125;-63
2022/10/06 02:11:19;;;;;;;10.65;1.70;;;;;;;10.99;100.00;102188.50;5263685;28;20412;-61
2022/10/06 02:13:50;;;;;;;10.40;2.25;;;;;;;10.96;100.00;102195.81;5254585;28;20167;-61
2022/10/06 02:16:22;;;;;;;5.95;1.55;;;;;;;10.93;100.00;102204.88;5261504;28;20032;-61
2022/10/06 02:18:53;;;;;;;10.02;1.98;;;;;;;10.91;100.00;102200.53;5258772;28;20024;-62
2022/10/06 02:21:24;;;;;;;10.52;2.28;;;;;;;10.89;100.00;102215.78;5265098;28;20093;-62
2022/10/06 02:23:56;;;;;;;12.85;1.92;;;;;;;10.87;100.00;102212.34;5264542;28;20470;-61
2022/10/06 02:26:27;;;;;;;11.18;1.70;;;;;;;10.89;100.00;102216.66;5261139;28;20387;-62
2022/10/06 02:28:58;;;;;;;8.27;2.20;;;;;;;10.84;100.00;102228.56;5240596;28;20397;-62
2022/10/06 02:31:30;;;;;;;8.30;1.55;;;;;;;10.83;100.00;102232.16;5260755;28;20024;-61
2022/10/06 02:34:01;;;;;;;11.18;1.90;;;;;;;10.78;100.00;102235.09;5258916;28;20339;-61
2022/10/06 02:36:33;;;;;;;13.23;2.30;;;;;;;10.77;100.00;102230.69;5278631;28;20046;-61
2022/10/06 02:39:04;;;;;;;11.18;2.15;;;;;;;10.75;100.00;102236.09;5284139;28;20614;-61
2022/10/06 02:41:35;;;;;;;9.40;1.88;;;;;;;10.74;100.00;102241.53;5268034;28;20393;-61
2022/10/06 02:44:06;;;;;;;10.38;1.70;;;;;;;10.70;100.00;102248.84;5279492;28;20024;-61
2022/10/06 02:46:38;;;;;;;10.00;1.73;;;;;;;10.68;100.00;102252.53;5275189;28;20103;-61
2022/10/06 02:49:09;;;;;;;11.07;2.67;;;;;;;10.65;100.00;102256.25;5267769;28;20024;-61
2022/10/06 02:51:40;;;;;;;10.55;1.98;;;;;;;10.67;100.00;102262.34;5279155;28;20031;-61
2022/10/06 02:54:11;;;;;;;9.45;1.83;;;;;;;10.68;100.00;102269.44;5268527;28;20054;-62
2022/10/06 02:56:43;;;;;;;11.05;2.42;;;;;;;10.65;100.00;102280.25;5267822;28;21159;-61
2022/10/06 02:59:14;;;;;;;11.82;2.00;;;;;;;10.62;100.00;102275.09;5268614;28;20032;-61
2022/10/06 03:01:45;;;;;;;13.00;2.75;;;;;;;10.56;100.00;102275.41;5264022;28;20132;-61
2022/10/06 03:04:17;;;;;;;9.32;1.80;;;;;;;10.53;100.00;102283.59;5259278;28;20060;-62
2022/10/06 03:06:48;;;;;;;10.45;1.90;;;;;;;10.56;100.00;102286.09;5260615;28;20036;-62
2022/10/06 03:09:19;;;;;;;13.75;2.28;;;;;;;10.51;100.00;102294.34;5263670;28;20087;-62
2022/10/06 03:11:51;;;;;;;10.70;1.90;;;;;;;10.57;100.00;102296.69;5278108;28;20025;-62
2022/10/06 03:14:22;;;;;;;10.82;2.38;;;;;;;10.47;100.00;102299.91;5274157;28;20034;-62
2022/10/06 03:16:55;;;;;;;8.27;1.75;;;;;;;10.44;100.00;102302.75;5262295;28;20028;-62
2022/10/06 03:19:27;;;;;;;15.38;3.25;;;;;;;10.37;100.00;102304.88;5277141;28;20036;-62
2022/10/06 03:21:58;;;;;;;8.40;1.92;;;;;;;10.43;100.00;102309.03;5276708;28;20048;-62
2022/10/06 03:24:29;;;;;;;11.57;2.03;;;;;;;10.42;100.00;102307.31;5283670;28;20036;-61
2022/10/06 03:27:01;;;;;;;11.27;2.25;;;;;;;10.30;100.00;102308.78;5259049;28;20037;-62
2022/10/06 03:29:33;;;;;;;10.75;2.00;;;;;;;10.30;100.00;102315.03;5251329;28;20111;-62
2022/10/06 03:32:05;;;;;;;14.00;1.83;;;;;;;10.29;100.00;102318.59;5252239;28;20068;-62
2022/10/06 03:34:36;;;;;;;9.07;2.25;;;;;;;10.31;100.00;102321.22;5266933;28;20025;-63
2022/10/06 03:37:07;;;;;;;9.85;2.58;;;;;;;10.28;100.00;102326.66;5256081;28;20403;-63
2022/10/06 03:39:39;;;;;;;10.43;1.80;;;;;;;10.32;100.00;102330.94;5265585;28;20037;-62
2022/10/06 03:42:10;;;;;;;10.20;1.75;;;;;;;10.26;100.00;102334.75;5248529;28;20028;-62
2022/10/06 03:44:41;;;;;;;12.20;1.90;;;;;;;10.17;100.00;102336.09;5280576;28;20055;-62
2022/10/06 03:47:12;;;;;;;13.73;1.90;;;;;;;10.11;100.00;102341.72;5257839;28;20119;-62
2022/10/06 03:49:44;;;;;;;13.48;2.42;;;;;;;10.11;100.00;102344.41;5254816;28;20036;-62
2022/10/06 03:52:15;;;;;;;7.00;1.75;;;;;;;10.05;100.00;102344.72;5249328;28;20432;-62
2022/10/06 03:54:47;;;;;;;15.02;4.10;;;;;;;10.15;100.00;102353.97;5260389;28;20083;-62
2022/10/06 03:57:18;;;;;;;10.52;2.05;;;;;;;10.16;100.00;102357.50;5255894;28;20627;-62
2022/10/06 03:59:49;;;;;;;12.15;2.33;;;;;;;10.05;100.00;102357.16;5251887;28;20510;-62
2022/10/06 04:02:21;;;;;;;10.18;2.40;;;;;;;10.00;100.00;102360.06;5258318;28;20428;-62
2022/10/06 04:04:52;;;;;;;8.55;2.08;;;;;;;10.05;100.00;102365.16;5262338;28;20257;-62
2022/10/06 04:07:23;;;;;;;12.63;2.50;;;;;;;10.05;100.00;102368.72;5262173;28;20064;-62
2022/10/06 04:09:54;;;;;;;11.52;2.38;;;;;;;9.97;100.00;102376.22;5255867;28;20032;-62
2022/10/06 04:12:26;;;;;;;10.90;2.45;;;;;;;9.90;100.00;102381.00;5255463;28;20123;-62
2022/10/06 04:14:57;;;;;;;8.73;2.00;;;;;;;9.92;100.00;102384.44;5260643;28;20094;-61
2022/10/06 04:17:28;;;;;;;13.10;2.25;;;;;;;9.88;100.00;102390.88;5259942;28;20047;-62
2022/10/06 04:19:59;;;;;;;13.50;2.50;;;;;;;9.90;100.00;102393.47;5260385;28;20099;-62
2022/10/06 04:22:31;;;;;;;9.82;2.40;;;;;;;9.76;100.00;102404.78;5273695;28;20039;-62
2022/10/06 04:25:02;;;;;;;11.32;2.47;;;;;;;9.78;100.00;102402.94;5262982;28;20035;-62
2022/10/06 04:27:33;;;;;;;12.73;2.15;;;;;;;9.70;100.00;102402.41;5248988;28;20459;-62
2022/10/06 04:30:05;;;;;;;17.98;3.03;;;;;;;9.72;100.00;102403.19;5270063;28;20470;-62
2022/10/06 04:32:36;;;;;;;10.63;2.63;;;;;;;9.71;100.00;102407.69;5266363;28;20568;-63
2022/10/06 04:35:07;;;;;;;15.65;2.83;;;;;;;9.67;100.00;102414.09;5279201;28;20036;-62
2022/10/06 04:37:39;;;;;;;12.50;2.95;;;;;;;9.64;100.00;102416.03;5265840;28;20025;-62
2022/10/06 04:40:11;;;;;;;16.38;2.35;;;;;;;9.58;100.00;102412.72;5276766;28;20036;-62
2022/10/06 04:42:42;;;;;;;18.95;3.60;;;;;;;9.58;100.00;102414.53;5263258;28;20162;-62
2022/10/06 04:45:13;;;;;;;15.57;2.72;;;;;;;9.56;100.00;102424.41;5265840;28;20042;-62
2022/10/06 04:47:47;;;;;;;13.32;2.95;;;;;;;9.52;100.00;102422.81;5259056;28;20029;-62
2022/10/06 04:50:19;;;;;;;15.57;2.95;;;;;;;9.51;100.00;102431.72;5276837;28;20052;-62
2022/10/06 04:52:52;;;;;;;13.13;3.30;;;;;;;9.49;100.00;102434.50;5266993;28;20052;-62
2022/10/06 04:55:23;;;;;;;12.13;2.47;;;;;;;9.48;100.00;102431.88;5281601;28;20363;-62
2022/10/06 04:57:55;;;;;;;12.68;2.80;;;;;;;9.52;100.00;102433.47;5284840;28;20059;-64
2022/10/06 05:00:27;;;;;;;12.40;2.92;;;;;;;9.41;100.00;102441.94;5276410;28;20039;-63
2022/10/06 05:02:58;;;;;;;14.07;3.00;;;;;;;9.37;100.00;102451.03;5271305;28;20033;-62
2022/10/06 05:05:29;;;;;;;14.07;3.00;;;;;;;9.36;100.00;102457.31;5286833;28;20024;-62
2022/10/06 05:08:01;;;;;;;13.93;2.60;;;;;;;9.33;100.00;102455.63;5275708;28;20032;-62
2022/10/06 05:10:32;;;;;;;12.27;3.08;;;;;;;9.37;100.00;102467.00;5276060;28;20036;-63
2022/10/06 05:13:04;;;;;;;12.40;2.60;;;;;;;9.34;100.00;102470.69;5275445;28;20040;-62
2022/10/06 05:15:36;;;;;;;18.63;3.40;;;;;;;9.29;100.00;102463.84;5276274;28;20053;-63
2022/10/06 05:18:07;;;;;;;12.40;3.00;;;;;;;9.32;100.00;102466.34;5277290;28;20066;-62
2022/10/06 05:20:39;;;;;;;14.07;2.47;;;;;;;9.25;100.00;102475.56;5265511;28;20060;-63
2022/10/06 05:23:10;;;;;;;14.85;2.70;;;;;;;9.27;100.00;102482.53;5261864;28;20048;-63
2022/10/06 05:25:50;;;;;;;14.95;2.58;;;;;;;9.25;100.00;102486.22;5263258;28;20156;-63
2022/10/06 05:28:23;;;;;;;22.02;3.72;;;;;;;9.21;100.00;102483.66;5272602;28;20073;-64
2022/10/06 05:30:58;;;;;;;14.30;3.38;;;;;;;9.20;100.00;102489.06;5276384;28;20028;-62
2022/10/06 05:33:32;;;;;;;13.77;2.97;;;;;;;9.17;100.00;102500.72;5270834;28;20514;-63
2022/10/06 05:36:05;;;;;;;;;;;;;;;9.25;100.00;102499.53;5268424;28;20038;-62
2022/10/06 05:38:39;;;;;;;18.70;3.38;;;;;;;9.16;100.00;102508.78;5271394;28;19920;-63
2022/10/06 05:41:20;;;;;;;15.43;3.55;;;;;;;9.09;100.00;102513.53;5275749;28;20069;-62
2022/10/06 05:43:52;;;;;;;14.98;2.80;;;;;;;9.09;100.00;102517.97;5277163;28;20044;-62
2022/10/06 05:46:28;;;;;;;23.48;3.38;;;;;;;9.05;100.00;102525.25;5282954;28;20063;-64
2022/10/06 05:49:02;;;;;;;18.13;2.95;;;;;;;9.17;100.00;102526.50;5275166;28;20043;-63
2022/10/06 05:51:38;;;;;;;17.80;3.35;;;;;;;9.06;100.00;102529.63;5271779;28;20440;-63
2022/10/06 05:54:11;;;;;;;15.82;3.10;;;;;;;9.05;100.00;102533.22;5277718;28;20051;-62
2022/10/06 05:56:43;;;;;;;19.35;3.38;;;;;;;9.06;100.00;102526.94;5268937;28;20151;-62
2022/10/06 05:59:14;;;;;;;13.70;2.75;;;;;;;8.97;100.00;102538.00;5272635;28;20373;-62
2022/10/06 06:01:45;;;;;;;10.30;3.10;;;;;;;8.95;100.00;102539.84;5275340;28;20037;-62
2022/10/06 06:04:17;;;;;;;16.30;3.35;;;;;;;8.93;100.00;102544.38;5266220;28;20070;-63
2022/10/06 06:06:48;;;;;;;18.27;3.20;;;;;;;8.91;100.00;102548.91;5278500;28;20107;-62
2022/10/06 06:09:20;;;;;;;16.15;2.92;;;;;;;8.99;100.00;102558.31;5281635;28;20340;-63
2022/10/06 06:11:52;;;;;;;16.00;3.10;;;;;;;8.94;100.00;102559.44;5256961;28;20038;-63
2022/10/06 06:15:59;;;;;;;15.43;3.50;;;;;;;8.91;100.00;102559.56;5267585;28;20412;-63
2022/10/06 06:17:14;;;;;;;19.65;3.70;;;;;;;8.88;100.00;102559.66;5271629;28;20470;-63
2022/10/06 06:19:46;;;;;;;12.68;3.17;;;;;;;8.88;100.00;102565.00;5270934;28;20042;-62
2022/10/06 06:22:17;;;;;;;15.18;3.47;;;;;;;8.86;100.00;102564.19;5276157;28;20040;-63
2022/10/06 06:24:49;;;;;;;11.18;2.78;;;;;;;8.90;100.00;102557.81;5272601;28;20051;-63
2022/10/06 06:27:20;;;;;;;17.90;3.40;;;;;;;8.83;100.00;102566.06;5266526;28;20037;-62
2022/10/06 06:29:51;;;;;;;11.25;3.03;;;;;;;8.90;100.00;102572.00;5272610;28;20051;-62
2022/10/06 06:32:23;;;;;;;15.15;3.50;;;;;;;8.90;100.00;102568.44;5257007;28;20381;-63
2022/10/06 06:34:54;;;;;;;19.45;3.13;;;;;;;8.91;100.00;102572.88;5262642;28;20041;-62
2022/10/06 06:37:30;;;;;;;15.27;2.85;;;;;;;8.90;100.00;102577.31;5268454;28;20135;-62
2022/10/06 06:40:01;;;;;;;17.27;3.33;;;;;;;8.94;100.00;102588.72;5272511;28;20115;-63
2022/10/06 06:42:33;;;;;;;11.02;3.20;;;;;;;8.86;100.00;102586.38;5275651;28;20031;-62
2022/10/06 06:45:04;;;;;;;14.02;3.10;;;;;;;8.95;100.00;102585.09;5276410;28;20042;-63
2022/10/06 06:47:36;;;;;;;18.70;3.30;;;;;;;8.90;100.00;102592.41;5288361;28;20032;-63
2022/10/06 06:50:09;;;;;;;15.88;3.10;;;;;;;9.03;100.00;102604.28;5281205;28;20036;-63
2022/10/06 06:52:42;;;;;;;17.50;3.50;;;;;;;8.96;100.00;102606.34;5278000;28;20087;-62
2022/10/06 06:55:14;;;;;;;14.88;2.75;;;;;;;8.93;100.00;102601.13;5284575;28;20032;-63
2022/10/06 06:57:45;;;;;;;13.07;2.97;;;;;;;9.01;100.00;102606.16;5277707;28;20044;-63
2022/10/06 07:00:16;;;;;;;15.15;2.92;;;;;;;8.98;100.00;102616.94;5285437;28;20123;-62
2022/10/06 07:02:54;;;;;;;16.90;3.28;;;;;;;9.07;100.00;102619.22;5286672;28;20035;-62
2022/10/06 07:05:26;;;;;;;21.52;4.05;;;;;;;9.01;100.00;102623.00;5281821;28;20442;-62
2022/10/06 07:07:57;;;;;;;15.80;3.95;;;;;;;9.02;100.00;102626.53;5283977;28;20040;-63
2022/10/06 07:10:30;;;;;;;16.33;3.90;;;;;;;9.06;100.00;102638.78;5290531;28;20028;-63
2022/10/06 07:13:03;;;;;;;20.10;5.13;;;;;;;9.13;100.00;102631.41;5285004;28;20042;-62
2022/10/06 07:26:54;;;;;;;20.08;4.68;;;;;;;9.23;100.00;102654.91;5261319;28;20729;-62
2022/10/06 07:29:26;;;;;;;16.25;3.60;;;;;;;9.28;100.00;102664.50;5259054;28;20036;-63
2022/10/06 07:31:57;;;;;;;16.73;3.83;;;;;;;9.28;100.00;102662.75;5265549;28;20524;-62
2022/10/06 07:34:29;;;;;;;22.65;4.45;;;;;;;9.29;100.00;102666.25;5270248;28;20060;-62
2022/10/06 07:37:00;;;;;;;19.10;3.85;;;;;;;9.31;100.00;102673.25;5269582;28;20039;-62
2022/10/06 07:39:31;;;;;;;20.80;4.68;;;;;;;9.36;100.00;102684.59;5269604;28;20493;-62
2022/10/06 07:42:09;;;;;;;17.92;3.40;;;;;;;9.40;100.00;102685.34;5272831;28;20033;-62
2022/10/06 07:45:37;;;;;;;20.80;3.90;;;;;;;9.43;100.00;102682.53;5273388;28;20032;-62
2022/10/06 07:47:38;;;;;;;15.48;3.30;;;;;;;9.50;100.00;102692.00;5280249;28;20039;-62
2022/10/06 07:50:11;;;;;;;16.85;4.07;;;;;;;9.53;100.00;102697.19;5262110;28;20028;-62
2022/10/06 07:52:46;;;;;;;14.38;3.10;;;;;;;9.56;100.00;102701.53;5267299;28;20498;-62
2022/10/06 07:55:17;;;;;;;14.13;3.38;;;;;;;9.55;100.00;102697.13;5276506;28;20441;-62
2022/10/06 07:57:50;;;;;;;16.60;3.90;;;;;;;9.58;100.00;102700.53;5265823;28;20143;-62
2022/10/06 08:00:21;;;;;;;16.70;3.10;;;;;;;9.61;100.00;102702.22;5278853;28;20082;-62
2022/10/06 08:02:53;;;;;;;14.65;3.40;;;;;;;9.70;100.00;102708.94;5277063;28;20021;-62
2022/10/06 08:05:24;;;;;;;20.52;3.40;;;;;;;9.79;100.00;102708.53;5282002;28;20099;-62
2022/10/06 08:07:57;;;;;;;17.45;3.97;;;;;;;9.73;100.00;102704.34;5278414;28;20035;-62
2022/10/06 08:10:28;;;;;;;18.73;3.22;;;;;;;9.83;100.00;102710.13;5273006;28;20474;-62
2022/10/06 08:13:00;;;;;;;13.52;2.80;;;;;;;9.85;100.00;102721.59;5287237;28;20076;-62
2022/10/06 08:15:32;;;;;;;11.15;3.00;;;;;;;9.87;100.00;102724.19;5278396;28;20063;-62
2022/10/06 08:18:03;;;;;;;12.80;3.35;;;;;;;9.94;100.00;102729.19;5279154;28;20024;-62
2022/10/06 08:20:35;;;;;;;20.42;3.88;;;;;;;9.96;100.00;102732.66;5284165;28;20601;-62
2022/10/06 08:23:07;;;;;;;23.25;3.88;;;;;;;10.07;100.00;102732.22;5273604;28;20024;-62
2022/10/06 08:25:42;;;;;;;14.25;3.17;;;;;;;10.09;100.00;102748.16;5283149;28;20027;-63
2022/10/06 08:28:13;;;;;;;14.60;3.20;;;;;;;10.23;100.00;102740.38;5280907;28;20032;-63
2022/10/06 08:30:45;;;;;;;17.33;3.22;;;;;;;10.30;100.00;102749.00;5280284;28;20024;-62
2022/10/06 08:33:17;;;;;;;14.63;3.17;;;;;;;10.45;100.00;102740.34;5291693;28;20035;-62
2022/10/06 08:35:48;;;;;;;19.95;3.40;;;;;;;10.42;100.00;102744.94;5287079;28;20020;-62
2022/10/06 08:38:20;;;;;;;18.88;3.33;;;;;;;10.52;100.00;102748.91;5292538;28;20028;-62
2022/10/06 08:40:52;;;;;;;16.15;3.30;;;;;;;10.66;100.00;102757.16;5283997;28;20209;-62
2022/10/06 08:43:25;;;;;;;12.63;3.10;;;;;;;10.66;100.00;102767.84;5269719;28;20133;-63
2022/10/06 08:46:00;;;;;;;16.38;3.25;;;;;;;10.72;100.00;102758.66;5277897;28;20036;-63
2022/10/06 08:48:37;;;;;;;17.05;2.70;;;;;;;10.78;100.00;102759.25;5276748;28;20036;-63
2022/10/06 08:51:28;;;;;;;19.05;3.70;;;;;;;10.88;100.00;102764.16;5282362;28;20049;-64
2022/10/06 08:54:20;;;;;;;11.20;3.28;;;;;;;10.96;100.00;102767.34;5287242;28;20044;-63
2022/10/06 08:57:11;;;;;;;13.07;2.60;;;;;;;11.06;100.00;102773.97;5278358;28;20028;-63
2022/10/06 08:59:46;;;;;;;14.60;3.22;;;;;;;11.12;100.00;102770.13;5281621;28;20072;-63
2022/10/06 09:02:27;;;;;;;12.57;2.60;;;;;;;11.23;100.00;102777.66;5270758;28;20486;-63
2022/10/06 09:05:03;;;;;;;13.50;3.55;;;;;;;11.39;100.00;102775.97;5277077;28;20356;-63
2022/10/06 09:07:52;;;;;;;11.00;3.05;;;;;;;11.52;100.00;102789.56;5278419;28;20343;-63
2022/10/06 09:10:30;;;;;;;22.52;3.60;;;;;;;11.66;100.00;102792.44;5291831;28;20031;-63
2022/10/06 09:13:07;;;;;;;14.88;3.17;;;;;;;11.77;100.00;102795.47;5277449;28;20050;-63
2022/10/06 09:15:59;;;;;;;16.83;3.10;;;;;;;11.81;100.00;102803.31;5278344;28;20070;-63
2022/10/06 09:18:36;;;;;;;15.48;3.05;;;;;;;11.91;100.00;102804.63;5274689;28;20217;-63
2022/10/06 09:21:15;;;;;;;15.00;2.97;;;;;;;11.95;100.00;102808.88;5272652;28;20115;-63
2022/10/06 09:23:55;;;;;;;15.75;3.05;;;;;;;12.05;100.00;102815.47;5283634;28;20075;-63
2022/10/06 09:26:30;;;;;;;12.13;3.67;;;;;;;12.08;100.00;102812.66;5280747;28;20077;-63
2022/10/06 09:29:01;;;;;;;15.80;2.70;;;;;;;12.09;100.00;102801.00;5279449;28;20038;-63
2022/10/06 09:31:38;;;;;;;12.38;2.22;;;;;;;12.13;100.00;102815.06;5281077;28;20024;-63
2022/10/06 09:34:15;;;;;;;15.60;3.25;;;;;;;12.18;100.00;102806.81;5279561;28;20036;-65
2022/10/06 09:37:06;;;;;;;14.60;2.60;;;;;;;12.27;100.00;102814.34;5283958;28;20082;-63
2022/10/06 09:39:43;;;;;;;14.95;3.30;;;;;;;12.32;100.00;102818.53;5276967;28;20523;-65
2022/10/06 09:42:21;;;;;;;11.82;2.20;;;;;;;12.46;100.00;102820.47;5274450;28;20611;-64
2022/10/06 09:45:23;;;;;;;10.35;2.10;;;;;;;12.50;100.00;102823.84;5290913;28;20031;-63
2022/10/06 09:48:11;;;;;;;10.75;2.80;;;;;;;12.59;100.00;102825.19;5278653;28;20032;-64
2022/10/06 09:50:43;;;;;;;12.10;2.83;;;;;;;12.71;100.00;102830.75;5284410;28;20025;-64
2022/10/06 09:53:15;;;;;;;14.45;2.65;;;;;;;12.86;100.00;102831.72;5274243;28;20037;-64
2022/10/06 09:55:50;;;;;;;12.07;2.95;;;;;;;12.92;100.00;102831.41;5280310;28;20540;-64
2022/10/06 09:58:29;;;;;;;11.82;2.65;;;;;;;12.90;100.00;102832.44;5272066;28;20032;-64
2022/10/06 10:01:11;;;;;;;14.48;2.95;;;;;;;13.02;100.00;102836.25;5273801;28;20063;-64
2022/10/06 10:03:50;;;;;;;14.15;2.58;;;;;;;13.06;100.00;102841.38;5285214;28;20521;-64
2022/10/06 10:06:25;;;;;;;11.55;2.40;;;;;;;13.11;100.00;102831.25;5274224;28;20032;-64
2022/10/06 10:09:18;;;;;;;10.23;2.25;;;;;;;13.14;100.00;102831.09;5279226;28;20028;-64
2022/10/06 10:12:29;;;;;;;13.90;2.20;;;;;;;13.23;100.00;102834.19;5250650;28;20498;-64
2022/10/06 10:15:23;;;;;;;8.77;1.88;;;;;;;13.29;100.00;102839.25;5260202;28;20656;-64
2022/10/06 10:17:57;;;;;;;12.18;2.05;;;;;;;13.24;100.00;102833.25;5264207;28;20470;-64
2022/10/06 10:20:33;;;;;;;;;;;;;;;13.33;100.00;102836.31;5266249;28;20041;-64
2022/10/06 10:23:30;;;;;;;9.25;1.90;;;;;;;13.37;100.00;102839.69;5257502;28;19920;-64
2022/10/06 10:26:16;;;;;;;8.55;2.10;;;;;;;13.34;100.00;102839.84;5263436;28;20029;-64
2022/10/06 10:29:30;;;;;;;12.23;1.77;;;;;;;13.45;100.00;102839.25;5265793;28;20096;-64
2022/10/06 10:32:11;;;;;;;12.88;1.67;;;;;;;13.55;99.41;102844.97;5261569;28;20042;-64
2022/10/06 10:35:12;;;;;;;10.98;2.58;;;;;;;13.62;100.00;102830.25;5258873;28;20442;-64
2022/10/06 10:37:51;;;;;;;8.95;1.80;;;;;;;13.64;96.38;102841.75;5252150;28;20059;-64
2022/10/06 10:40:41;;;;;;;7.63;1.42;;;;;;;13.62;98.67;102836.47;5265727;28;20040;-64
2022/10/06 10:43:21;;;;;;;6.50;1.58;;;;;;;13.61;95.89;102844.59;5258223;28;20116;-64
2022/10/06 10:46:11;;;;;;;8.40;2.08;;;;;;;13.64;95.47;102839.94;5264706;28;20021;-64
2022/10/06 10:48:52;;;;;;;10.30;1.90;;;;;;;13.61;97.35;102833.88;5259566;28;20370;-64
2022/10/06 10:51:34;;;;;;;10.43;2.60;;;;;;;13.67;95.87;102842.44;5265938;28;20028;-64
2022/10/06 10:54:13;;;;;;;10.70;1.70;;;;;;;13.64;99.48;102839.94;5268708;28;20643;-64
2022/10/06 10:56:48;;;;;;;7.80;1.83;;;;;;;13.73;92.20;102835.88;5275477;28;20099;-64
2022/10/06 10:59:32;;;;;;;;;;;;;;;13.82;97.86;102843.34;5263983;28;20482;-64
2022/10/06 11:02:21;;;;;;;9.32;2.00;;;;;;;13.78;94.67;102846.31;5267099;28;19921;-64
2022/10/06 11:05:16;;;;;;;9.38;2.15;;;;;;;13.87;91.73;102849.31;5257921;28;20029;-64
2022/10/06 11:08:04;;;;;;;11.10;2.42;;;;;;;13.88;93.21;102839.44;5268301;28;20486;-64
2022/10/06 11:10:57;;;;;;;9.57;2.47;;;;;;;14.02;92.62;102850.25;5267631;28;20398;-64
2022/10/06 11:13:41;;;;;;;10.57;2.65;;;;;;;14.01;91.80;102847.66;5255256;28;20052;-64
2022/10/06 11:16:20;;;;;;;12.60;3.00;;;;;;;14.06;92.23;102845.56;5257800;28;20483;-64
2022/10/06 11:19:16;;;;;;;9.80;1.83;;;;;;;14.08;97.82;102843.66;5259061;28;20457;-64
2022/10/06 11:22:01;;;;;;;9.02;2.17;;;;;;;14.01;96.38;102853.03;5259629;28;20059;-64
2022/10/06 11:24:51;;;;;;;11.95;2.30;;;;;;;14.20;91.86;102859.03;5263905;28;20040;-64
2022/10/06 11:28:00;;;;;;;14.60;2.65;;;;;;;14.23;94.26;102848.09;5267117;28;20032;-64
2022/10/06 11:30:41;;;;;;;9.25;2.10;;;;;;;14.30;91.05;102849.47;5268850;28;20356;-64
2022/10/06 11:33:26;;;;;;;9.05;2.35;;;;;;;14.42;89.14;102838.91;5257851;28;20052;-64
2022/10/06 11:35:59;;;;;;;10.18;2.80;;;;;;;14.50;88.07;102842.88;5274913;28;20051;-64
2022/10/06 11:38:40;;;;;;;12.00;2.80;;;;;;;14.48;92.70;102839.44;5269400;28;20509;-64
2022/10/06 11:41:26;;;;;;;10.73;2.80;;;;;;;14.54;87.95;102834.66;5256814;28;20364;-64
2022/10/06 11:44:15;;;;;;;7.57;2.10;;;;;;;14.55;94.16;102836.34;5268879;28;20552;-64
2022/10/06 11:47:13;;;;;;;10.25;2.95;;;;;;;14.55;92.29;102839.03;5269140;28;20415;-64
2022/10/06 11:49:50;;;;;;;10.90;2.08;;;;;;;14.56;89.11;102843.47;5254609;28;20040;-64
2022/10/06 11:52:22;;;;;;;8.73;2.05;;;;;;;14.60;89.40;102840.53;5265526;28;20408;-65
2022/10/06 11:55:14;;;;;;;8.02;2.10;;;;;;;14.63;93.52;102834.09;5258076;28;20032;-64
2022/10/06 11:58:05;;;;;;;13.00;2.45;;;;;;;14.61;92.25;102828.84;5267075;28;20035;-64
2022/10/06 12:00:37;;;;;;;7.65;1.77;;;;;;;14.66;91.19;102833.91;5264195;28;20705;-64
2022/10/06 12:03:27;;;;;;;8.23;2.38;;;;;;;14.76;89.79;102829.69;5265486;28;20529;-64
2022/10/06 12:05:58;;;;;;;7.55;2.10;;;;;;;14.85;88.57;102833.63;5262127;28;20335;-64